createdAt,value
2018-03-04T00:01:06.524Z,48.70
2018-03-04T00:03:35.326Z,46.83
2018-03-04T00:06:03.768Z,50.55
2018-03-04T00:08:32.465Z,45.92
2018-03-04T00:11:00.606Z,46.80
2018-03-04T00:13:28.752Z,46.60
2018-03-04T00:15:57.802Z,46.65
2018-03-04T00:18:26.172Z,46.92
2018-03-04T00:20:54.422Z,50.08
2018-03-04T00:23:22.789Z,47.62
2018-03-04T00:25:51.810Z,48.87
2018-03-04T00:28:20.695Z,49.03
2018-03-04T00:30:49.226Z,50.05
2018-03-04T00:33:18.936Z,46.58
2018-03-04T00:35:49.191Z,50.50
2018-03-04T00:38:17.906Z,44.97
2018-03-04T00:40:46.413Z,51.15
2018-03-04T00:43:15.418Z,50.25
2018-03-04T00:45:44.317Z,48.05
2018-03-04T00:48:13.268Z,52.45
2018-03-04T00:50:41.550Z,48.47
2018-03-04T00:53:09.956Z,50.10
2018-03-04T00:55:39.093Z,48.95
2018-03-04T00:58:07.370Z,51.13
2018-03-04T01:00:35.724Z,50.90
2018-03-04T01:03:03.957Z,50.90
2018-03-04T01:05:32.198Z,50.97
2018-03-04T01:08:00.326Z,49.95
2018-03-04T01:10:29.239Z,50.60
2018-03-04T01:12:57.360Z,52.15
2018-03-04T01:15:25.506Z,53.90
2018-03-04T01:17:53.636Z,52.03
2018-03-04T01:20:21.818Z,50.12
2018-03-04T01:22:51.314Z,51.88
2018-03-04T01:25:20.340Z,52.20
2018-03-04T01:27:48.455Z,54.28
2018-03-04T01:30:17.359Z,49.95
2018-03-04T01:32:46.276Z,51.05
2018-03-04T01:35:14.417Z,52.58
2018-03-04T01:37:42.605Z,51.05
2018-03-04T01:40:10.837Z,51.08
2018-03-04T01:42:38.977Z,50.97
2018-03-04T01:45:07.099Z,53.25
2018-03-04T01:47:36.004Z,50.78
2018-03-04T01:50:04.148Z,55.53
2018-03-04T01:52:32.349Z,55.20
2018-03-04T01:55:00.516Z,52.53
2018-03-04T01:57:28.718Z,57.92
2018-03-04T01:59:56.853Z,58.63
2018-03-04T02:02:25.850Z,58.40
2018-03-04T02:04:54.787Z,62.45
2018-03-04T02:07:22.942Z,61.97
2018-03-04T02:09:51.069Z,65.00
2018-03-04T02:12:19.370Z,60.63
2018-03-04T02:14:47.525Z,67.68
2018-03-04T02:17:15.777Z,71.22
2018-03-04T02:19:44.094Z,70.07
2018-03-04T02:22:12.239Z,71.95
2018-03-04T02:24:41.182Z,71.57
2018-03-04T02:27:09.413Z,75.47
2018-03-04T02:29:37.557Z,73.47
2018-03-04T02:32:05.700Z,69.00
2018-03-04T02:34:33.833Z,73.15
2018-03-04T02:37:02.214Z,70.62
2018-03-04T02:39:30.362Z,67.35
2018-03-04T02:41:58.579Z,73.15
2018-03-04T02:44:26.711Z,71.30
2018-03-04T02:46:55.633Z,69.70
2018-03-04T02:49:23.760Z,67.65
2018-03-04T02:51:51.917Z,70.30
2018-03-04T02:54:20.241Z,69.75
2018-03-04T02:56:48.970Z,76.28
2018-03-04T02:59:17.113Z,66.82
2018-03-04T03:01:45.274Z,74.80
2018-03-04T03:04:13.425Z,72.20
2018-03-04T03:06:41.621Z,72.75
2018-03-04T03:09:09.767Z,71.72
2018-03-04T03:11:38.676Z,77.68
2018-03-04T03:14:06.952Z,73.22
2018-03-04T03:16:35.104Z,68.82
2018-03-04T03:19:03.254Z,73.87
2018-03-04T03:21:31.393Z,70.55
2018-03-04T03:23:59.550Z,77.45
2018-03-04T03:26:27.677Z,65.60
2018-03-04T03:28:56.605Z,71.57
2018-03-04T03:31:24.737Z,77.85
2018-03-04T03:33:52.892Z,81.78
2018-03-04T03:36:21.022Z,76.35
2018-03-04T03:38:49.165Z,78.55
2018-03-04T03:41:17.435Z,76.53
2018-03-04T03:43:46.344Z,85.70
2018-03-04T03:46:14.509Z,71.30
2018-03-04T03:48:42.650Z,81.50
2018-03-04T03:51:10.794Z,73.18
2018-03-04T03:53:39.531Z,85.12
2018-03-04T03:56:07.668Z,76.82
2018-03-04T03:58:35.816Z,77.37
2018-03-04T04:01:04.010Z,75.50
2018-03-04T04:03:32.127Z,74.25
2018-03-04T04:06:00.273Z,80.07
2018-03-04T04:08:29.165Z,75.25
2018-03-04T04:10:58.190Z,72.55
2018-03-04T04:13:26.330Z,80.38
2018-03-04T04:15:55.230Z,71.30
2018-03-04T04:18:23.727Z,80.62
2018-03-04T04:20:52.143Z,73.07
2018-03-04T04:23:20.298Z,79.72
2018-03-04T04:25:48.443Z,79.18
2018-03-04T04:28:16.718Z,79.30
2018-03-04T04:30:44.869Z,81.40
2018-03-04T04:33:13.754Z,77.45
2018-03-04T04:35:42.752Z,79.03
2018-03-04T04:38:11.650Z,70.28
2018-03-04T04:40:39.933Z,82.82
2018-03-04T04:43:08.080Z,83.95
2018-03-04T04:45:36.264Z,80.65
2018-03-04T04:48:05.173Z,78.00
2018-03-04T04:50:33.304Z,76.78
2018-03-04T04:53:01.460Z,77.55
2018-03-04T04:55:30.065Z,82.55
2018-03-04T04:57:58.260Z,77.57
2018-03-04T05:00:26.493Z,77.80
2018-03-04T05:02:54.632Z,69.70
2018-03-04T05:05:22.771Z,74.75
2018-03-04T05:07:51.057Z,87.62
2018-03-04T05:10:19.289Z,77.57
2018-03-04T05:12:47.558Z,81.82
2018-03-04T05:15:15.723Z,75.32
2018-03-04T05:17:43.865Z,81.10
2018-03-04T05:20:11.995Z,67.72
2018-03-04T05:22:40.922Z,74.50
2018-03-04T05:25:09.056Z,82.88
2018-03-04T05:27:37.196Z,81.95
2018-03-04T05:30:05.325Z,84.20
2018-03-04T05:32:33.523Z,82.10
2018-03-04T05:35:01.665Z,80.05
2018-03-04T05:37:29.874Z,83.82
2018-03-04T05:39:58.014Z,82.47
2018-03-04T05:42:26.136Z,74.85
2018-03-04T05:44:54.287Z,65.65
2018-03-04T05:47:22.422Z,81.07
2018-03-04T05:49:50.567Z,76.82
2018-03-04T05:52:19.458Z,74.00
2018-03-04T05:54:48.365Z,77.10
2018-03-04T05:57:16.485Z,72.22
2018-03-04T05:59:44.634Z,80.55
2018-03-04T06:02:12.754Z,74.03
2018-03-04T06:04:40.896Z,85.07
2018-03-04T06:07:09.844Z,73.65
2018-03-04T06:09:37.993Z,79.28
2018-03-04T06:12:06.898Z,88.12
2018-03-04T06:14:35.809Z,91.95
2018-03-04T06:17:03.939Z,85.72
2018-03-04T06:19:32.087Z,81.32
2018-03-04T06:22:00.210Z,88.60
2018-03-04T06:24:28.369Z,91.45
2018-03-04T06:26:57.269Z,88.53
2018-03-04T06:29:25.433Z,91.95
2018-03-04T06:31:54.406Z,91.03
2018-03-04T06:34:22.553Z,84.72
2018-03-04T06:36:50.684Z,93.30
2018-03-04T06:39:18.822Z,90.20
2018-03-04T06:41:46.961Z,86.78
2018-03-04T06:44:15.096Z,92.10
2018-03-04T06:46:43.277Z,82.75
2018-03-04T06:49:11.410Z,92.03
2018-03-04T06:51:39.580Z,87.80
2018-03-04T06:54:07.723Z,82.50
2018-03-04T06:56:35.856Z,86.37
2018-03-04T06:59:04.014Z,87.75
2018-03-04T07:01:32.497Z,74.72
2018-03-04T07:04:00.633Z,79.97
2018-03-04T07:06:28.775Z,72.78
2018-03-04T07:08:56.908Z,70.47
2018-03-04T07:11:25.821Z,80.87
2018-03-04T07:13:53.933Z,77.47
2018-03-04T07:16:22.073Z,89.15
2018-03-04T07:18:50.196Z,80.38
2018-03-04T07:21:19.112Z,81.22
2018-03-04T07:23:47.245Z,67.25
2018-03-04T07:26:15.378Z,80.78
2018-03-04T07:28:43.513Z,77.65
2018-03-04T07:31:12.400Z,79.90
2018-03-04T07:33:41.325Z,79.95
2018-03-04T07:36:09.437Z,79.45
2018-03-04T07:38:37.576Z,72.40
2018-03-04T07:41:05.702Z,79.78
2018-03-04T07:43:34.606Z,84.97
2018-03-04T07:46:02.737Z,81.30
2018-03-04T07:48:30.877Z,77.35
2018-03-04T07:50:59.005Z,81.45
2018-03-04T07:53:27.916Z,81.70
2018-03-04T07:55:56.404Z,81.28
2018-03-04T07:58:24.550Z,83.15
2018-03-04T08:00:53.528Z,81.68
2018-03-04T08:03:21.679Z,80.43
2018-03-04T08:05:49.828Z,78.10
2018-03-04T08:08:17.972Z,73.40
2018-03-04T08:10:46.112Z,75.62
2018-03-04T08:13:15.007Z,73.07
2018-03-04T08:15:43.915Z,67.55
2018-03-04T08:18:12.054Z,78.70
2018-03-04T08:20:40.230Z,75.85
2018-03-04T08:23:08.355Z,88.05
2018-03-04T08:25:36.506Z,79.90
2018-03-04T08:28:16.408Z,64.28
2018-03-04T08:30:44.574Z,72.62
2018-03-04T08:33:12.698Z,70.80
2018-03-04T08:35:40.835Z,70.22
2018-03-04T08:38:08.949Z,73.93
2018-03-04T08:40:37.189Z,73.50
2018-03-04T08:43:06.071Z,65.68
2018-03-04T08:45:35.082Z,73.70
2018-03-04T08:48:03.221Z,66.15
2018-03-04T08:50:31.332Z,65.18
2018-03-04T08:52:59.473Z,64.30
2018-03-04T08:55:27.595Z,66.62
2018-03-04T08:57:55.733Z,73.97
2018-03-04T09:00:24.746Z,69.97
2018-03-04T09:02:52.925Z,64.57
2018-03-04T09:05:21.059Z,62.62
2018-03-04T09:07:49.956Z,54.95
2018-03-04T09:10:18.858Z,64.28
2018-03-04T09:13:04.450Z,61.72
2018-03-04T09:15:32.574Z,67.30
2018-03-04T09:18:00.917Z,61.90
2018-03-04T09:20:44.714Z,62.33
2018-03-04T09:23:13.618Z,68.30
2018-03-04T09:25:41.746Z,67.78
2018-03-04T09:28:09.922Z,65.93
2018-03-04T09:30:38.431Z,63.50
2018-03-04T09:33:06.605Z,57.35
2018-03-04T09:35:34.830Z,57.05
2018-03-04T09:38:02.964Z,58.87
2018-03-04T09:40:31.092Z,59.20
2018-03-04T09:42:59.244Z,54.53
2018-03-04T09:45:27.458Z,62.83
2018-03-04T09:47:55.556Z,61.20
2018-03-04T09:50:24.132Z,58.22
2018-03-04T09:52:52.272Z,56.90
2018-03-04T09:55:20.413Z,54.30
2018-03-04T09:57:48.577Z,55.95
2018-03-04T10:00:16.703Z,56.33
2018-03-04T10:02:45.594Z,51.42
2018-03-04T10:05:13.814Z,57.42
2018-03-04T10:07:42.019Z,54.08
2018-03-04T10:10:10.229Z,57.78
2018-03-04T10:12:38.511Z,55.45
2018-03-04T10:15:06.688Z,56.97
2018-03-04T10:17:35.551Z,56.35
2018-03-04T10:20:03.714Z,55.22
2018-03-04T10:22:32.607Z,53.72
2018-03-04T10:25:01.545Z,48.78
2018-03-04T10:27:29.685Z,50.00
2018-03-04T10:29:57.860Z,51.47
2018-03-04T10:32:25.985Z,51.08
2018-03-04T10:34:54.129Z,56.42
2018-03-04T10:37:22.282Z,54.42
2018-03-04T10:39:50.432Z,58.03
2018-03-04T10:42:18.609Z,52.70
2018-03-04T10:44:46.812Z,52.33
2018-03-04T10:47:14.942Z,54.08
2018-03-04T10:49:43.119Z,53.95
2018-03-04T10:52:12.049Z,50.78
2018-03-04T10:54:40.172Z,51.30
2018-03-04T10:57:09.116Z,53.65
2018-03-04T10:59:37.274Z,52.70
2018-03-04T11:05:00.825Z,54.00
2018-03-04T11:07:29.734Z,53.38
2018-03-04T11:09:57.869Z,52.67
2018-03-04T11:12:26.797Z,51.08
2018-03-04T11:14:54.955Z,49.55
2018-03-04T11:17:23.091Z,45.38
2018-03-04T11:19:51.215Z,44.85
2018-03-04T11:22:19.367Z,45.17
2018-03-04T11:24:47.487Z,47.83
2018-03-04T11:27:15.641Z,44.80
2018-03-04T11:29:43.918Z,44.88
2018-03-04T11:32:12.082Z,45.78
2018-03-04T11:34:40.214Z,47.33
2018-03-04T11:37:09.128Z,45.25
2018-03-04T11:39:37.237Z,44.20
2018-03-04T11:42:05.387Z,44.07
2018-03-04T11:44:33.513Z,45.63
2018-03-04T11:47:02.497Z,46.50
2018-03-04T11:49:30.625Z,44.87
2018-03-04T11:51:58.759Z,50.00
2018-03-04T11:54:26.950Z,42.53
2018-03-04T11:56:55.080Z,41.73
2018-03-04T11:59:24.002Z,44.00
2018-03-04T12:01:52.241Z,45.00
2018-03-04T12:04:20.385Z,40.33
2018-03-04T12:06:48.512Z,39.90
2018-03-04T12:09:16.653Z,41.27
2018-03-04T12:11:44.773Z,41.60
2018-03-04T12:14:12.920Z,43.00
2018-03-04T12:16:41.813Z,44.80
2018-03-04T12:19:09.954Z,44.67
2018-03-04T12:21:38.080Z,42.40
2018-03-04T12:24:06.222Z,41.30
2018-03-04T12:26:35.131Z,36.90
2018-03-04T12:29:03.279Z,41.40
2018-03-04T12:31:31.459Z,37.80
2018-03-04T12:33:59.597Z,40.80
2018-03-04T12:36:27.725Z,39.23
2018-03-04T12:38:56.316Z,40.60
2018-03-04T12:41:24.422Z,41.07
2018-03-04T12:43:52.565Z,36.27
2018-03-04T12:46:20.681Z,38.57
2018-03-04T12:48:49.590Z,40.00
2018-03-04T12:51:17.712Z,38.87
2018-03-04T12:53:45.849Z,37.27
2018-03-04T12:56:13.973Z,37.73
2018-03-04T12:58:42.173Z,40.70
2018-03-04T13:01:10.421Z,40.00
2018-03-04T13:03:38.560Z,43.13
2018-03-04T13:06:07.069Z,39.50
2018-03-04T13:08:35.182Z,40.73
2018-03-04T13:11:03.321Z,39.60
2018-03-04T13:13:31.445Z,41.97
2018-03-04T13:15:59.589Z,36.67
2018-03-04T13:18:27.712Z,40.50
2018-03-04T13:20:55.862Z,40.00
2018-03-04T13:23:23.986Z,40.43
2018-03-04T13:25:52.897Z,41.00
2018-03-04T13:28:21.025Z,37.70
2018-03-04T13:30:49.166Z,39.20
2018-03-04T13:33:17.302Z,39.90
2018-03-04T13:35:45.447Z,35.93
2018-03-04T13:38:13.573Z,36.40
2018-03-04T13:40:41.722Z,36.37
2018-03-04T13:43:09.868Z,35.20
2018-03-04T13:45:38.004Z,36.67
2018-03-04T13:48:06.152Z,35.90
2018-03-04T13:50:34.309Z,38.83
2018-03-04T13:53:02.442Z,37.60
2018-03-04T13:55:30.577Z,35.70
2018-03-04T13:57:58.716Z,37.83
2018-03-04T14:00:26.982Z,38.97
2018-03-04T14:02:56.229Z,40.40
2018-03-04T14:05:24.354Z,38.67
2018-03-04T14:07:53.245Z,39.57
2018-03-04T14:10:21.385Z,41.33
2018-03-04T14:12:49.501Z,37.73
2018-03-04T14:15:17.671Z,36.80
2018-03-04T14:17:45.806Z,37.67
2018-03-04T14:20:13.938Z,38.93
2018-03-04T14:22:42.062Z,40.37
2018-03-04T14:25:10.978Z,39.40
2018-03-04T14:27:39.109Z,36.17
2018-03-04T14:30:07.306Z,36.70
2018-03-04T14:32:36.190Z,36.60
2018-03-04T14:35:05.120Z,38.80
2018-03-04T14:37:33.358Z,35.40
2018-03-04T14:40:02.629Z,37.87
2018-03-04T14:42:30.743Z,37.17
2018-03-04T14:44:58.910Z,39.00
2018-03-04T14:47:27.037Z,37.30
2018-03-04T14:49:55.189Z,34.17
2018-03-04T14:52:23.317Z,38.70
2018-03-04T14:54:52.285Z,39.30
2018-03-04T14:57:20.423Z,38.67
2018-03-04T14:59:48.596Z,38.20
2018-03-04T15:02:16.747Z,37.17
2018-03-04T15:04:44.894Z,38.08
2018-03-04T15:07:13.780Z,39.73
2018-03-04T15:09:42.709Z,38.40
2018-03-04T15:12:10.857Z,36.43
2018-03-04T15:14:38.990Z,40.08
2018-03-04T15:17:07.137Z,39.40
2018-03-04T15:19:35.264Z,38.38
2018-03-04T15:22:03.419Z,41.13
2018-03-04T15:24:32.326Z,43.03
2018-03-04T15:27:00.474Z,41.60
2018-03-04T15:29:29.381Z,40.03
2018-03-04T15:31:58.297Z,41.95
2018-03-04T15:34:26.432Z,40.60
2018-03-04T15:36:55.349Z,37.70
2018-03-04T15:39:23.473Z,38.13
2018-03-04T15:41:51.618Z,40.50
2018-03-04T15:44:19.744Z,39.60
2018-03-04T15:46:47.896Z,43.00
2018-03-04T15:49:16.021Z,39.40
2018-03-04T15:51:44.177Z,36.25
2018-03-04T15:54:12.317Z,36.93
2018-03-04T15:56:41.224Z,38.20
2018-03-04T15:59:09.369Z,39.00
2018-03-04T16:01:38.297Z,36.47
2018-03-04T16:04:06.441Z,37.88
2018-03-04T16:06:35.361Z,36.03
2018-03-04T16:09:03.487Z,38.35
2018-03-04T16:11:32.392Z,35.95
2018-03-04T16:14:00.562Z,37.50
2018-03-04T16:16:28.709Z,37.43
2018-03-04T16:18:56.845Z,38.63
2018-03-04T16:21:25.092Z,36.85
2018-03-04T16:23:53.981Z,37.30
2018-03-04T16:26:22.125Z,37.53
2018-03-04T16:28:50.260Z,36.58
2018-03-04T16:31:18.843Z,36.65
2018-03-04T16:33:47.033Z,42.35
2018-03-04T16:36:16.252Z,39.03
2018-03-04T16:38:44.456Z,36.55
2018-03-04T16:41:12.717Z,40.75
2018-03-04T16:43:40.940Z,38.75
2018-03-04T16:46:09.097Z,39.15
2018-03-04T16:48:38.920Z,39.05
2018-03-04T16:51:07.875Z,38.70
2018-03-04T16:53:36.036Z,37.22
2018-03-04T16:56:05.632Z,39.47
2018-03-04T16:58:34.307Z,39.28
2018-03-04T17:01:02.578Z,38.33
2018-03-04T17:03:31.251Z,39.63
2018-03-04T17:06:03.593Z,40.80
2018-03-04T17:08:33.231Z,39.75
2018-03-04T17:11:03.340Z,36.13
2018-03-04T17:13:31.797Z,40.20
2018-03-04T17:16:00.072Z,41.55
2018-03-04T17:18:29.056Z,40.63
2018-03-04T17:20:58.080Z,40.10
2018-03-04T17:23:27.758Z,39.88
2018-03-04T17:25:58.811Z,39.08
2018-03-04T17:28:28.085Z,37.65
2018-03-04T17:30:58.652Z,36.80
2018-03-04T17:33:27.236Z,35.20
2018-03-04T17:35:55.687Z,32.97
2018-03-04T17:38:26.509Z,35.08
2018-03-04T17:40:54.703Z,37.15
2018-03-04T17:43:23.568Z,37.05
2018-03-04T17:45:51.829Z,34.85
2018-03-04T17:48:19.946Z,38.08
2018-03-04T17:50:48.904Z,35.60
2018-03-04T17:53:17.119Z,39.70
2018-03-04T17:55:45.293Z,35.85
2018-03-04T17:58:13.442Z,37.40
2018-03-04T18:00:42.019Z,36.22
2018-03-04T18:03:10.144Z,36.95
2018-03-04T18:05:38.265Z,37.13
2018-03-04T18:08:07.180Z,35.60
2018-03-04T18:10:35.376Z,36.00
2018-03-04T18:13:03.506Z,36.50
2018-03-04T18:15:31.647Z,41.33
2018-03-04T18:18:00.157Z,37.35
2018-03-04T18:20:29.148Z,38.40
2018-03-04T18:22:57.288Z,37.95
2018-03-04T18:25:25.404Z,38.05
2018-03-04T18:27:53.614Z,40.25
2018-03-04T18:30:22.037Z,39.22
2018-03-04T18:32:51.897Z,38.10
2018-03-04T18:35:20.354Z,37.05
2018-03-04T18:37:49.355Z,36.30
2018-03-04T18:40:17.579Z,37.60
2018-03-04T18:42:45.720Z,39.53
2018-03-04T18:45:14.234Z,35.60
2018-03-04T18:47:43.617Z,39.47
2018-03-04T18:50:11.889Z,36.65
2018-03-04T18:52:40.781Z,38.17
2018-03-04T18:55:08.899Z,38.50
2018-03-04T18:57:37.050Z,39.38
2018-03-04T19:00:05.364Z,40.67
2018-03-04T19:02:33.705Z,39.85
2018-03-04T19:05:01.858Z,37.95
2018-03-04T19:07:29.976Z,42.47
2018-03-04T19:09:58.110Z,41.17
2018-03-04T19:12:26.231Z,37.88
2018-03-04T19:14:54.360Z,46.17
2018-03-04T19:17:22.488Z,49.53
2018-03-04T19:19:50.629Z,48.78
2018-03-04T19:22:18.774Z,43.42
2018-03-04T19:24:46.934Z,46.92
2018-03-04T19:27:15.072Z,43.08
2018-03-04T19:29:43.319Z,44.40
2018-03-04T19:32:11.590Z,44.22
2018-03-04T19:34:39.713Z,41.67
2018-03-04T19:37:08.617Z,40.28
2018-03-04T19:39:36.764Z,40.12
2018-03-04T19:42:04.891Z,39.85
2018-03-04T19:44:33.004Z,38.88
2018-03-04T19:47:01.136Z,39.05
2018-03-04T19:49:29.261Z,40.20
2018-03-04T19:51:58.265Z,40.53
2018-03-04T19:54:26.382Z,39.40
2018-03-04T19:56:55.286Z,37.45
2018-03-04T19:59:23.405Z,37.83
2018-03-04T20:01:51.578Z,37.08
2018-03-04T20:04:20.586Z,38.83
2018-03-04T20:06:48.737Z,36.47
2018-03-04T20:09:16.855Z,37.70
2018-03-04T20:11:45.015Z,33.88
2018-03-04T20:14:13.163Z,37.17
2018-03-04T20:16:41.312Z,39.65
2018-03-04T20:19:09.802Z,37.35
2018-03-04T20:21:38.684Z,39.80
2018-03-04T20:24:07.093Z,41.03
2018-03-04T20:26:35.214Z,40.72
2018-03-04T20:29:03.372Z,38.20
2018-03-04T20:31:31.534Z,38.33
2018-03-04T20:34:00.066Z,41.47
2018-03-04T20:36:28.754Z,38.05
2018-03-04T20:38:56.879Z,42.53
2018-03-04T20:41:25.039Z,40.70
2018-03-04T20:43:53.214Z,39.10
2018-03-04T20:46:21.457Z,42.85
2018-03-04T20:48:49.590Z,41.70
2018-03-04T20:51:17.729Z,41.33
2018-03-04T20:53:45.871Z,40.88
2018-03-04T20:56:14.016Z,41.25
2018-03-04T20:58:42.187Z,41.83
2018-03-04T21:01:10.373Z,38.10
2018-03-04T21:03:38.529Z,38.45
2018-03-04T21:06:06.705Z,36.67
2018-03-04T21:08:34.832Z,39.15
2018-03-04T21:11:02.966Z,35.08
2018-03-04T21:13:31.108Z,44.50
2018-03-04T21:15:59.261Z,41.90
2018-03-04T21:18:28.169Z,43.08
2018-03-04T21:20:56.298Z,46.75
2018-03-04T21:23:24.444Z,42.40
2018-03-04T21:25:52.696Z,46.72
2018-03-04T21:28:21.589Z,45.03
2018-03-04T21:30:49.730Z,47.72
2018-03-04T21:33:18.796Z,45.92
2018-03-04T21:35:46.908Z,46.53
2018-03-04T21:38:15.052Z,44.47
2018-03-04T21:40:43.193Z,44.42
2018-03-04T21:43:11.341Z,43.65
2018-03-04T21:45:39.503Z,44.45
2018-03-04T21:48:08.230Z,43.55
2018-03-04T21:50:36.362Z,42.75
2018-03-04T21:53:04.510Z,41.03
2018-03-04T21:55:33.411Z,40.38
2018-03-04T21:58:02.322Z,40.85
2018-03-04T22:00:30.506Z,40.65
2018-03-04T22:02:58.705Z,39.75
2018-03-04T22:05:26.845Z,39.05
2018-03-04T22:07:55.120Z,41.70
2018-03-04T22:10:23.341Z,40.58
2018-03-04T22:12:51.474Z,40.83
2018-03-04T22:15:19.601Z,43.97
2018-03-04T22:17:47.751Z,42.53
2018-03-04T22:20:15.868Z,44.05
2018-03-04T22:22:44.013Z,45.55
2018-03-04T22:25:12.903Z,41.80
2018-03-04T22:27:41.905Z,41.10
2018-03-04T22:30:10.029Z,41.58
2018-03-04T22:32:38.405Z,43.22
2018-03-04T22:35:06.537Z,37.17
2018-03-04T22:37:34.715Z,43.80
2018-03-04T22:40:02.941Z,42.28
2018-03-04T22:42:31.839Z,41.35
2018-03-04T22:45:00.875Z,43.60
2018-03-04T22:47:29.045Z,43.63
2018-03-04T22:49:57.194Z,42.08
2018-03-04T22:52:26.364Z,39.38
2018-03-04T22:54:55.578Z,41.60
2018-03-04T22:57:23.866Z,39.53
2018-03-04T22:59:51.977Z,43.78
2018-03-04T23:02:20.092Z,39.92
2018-03-04T23:04:49.000Z,39.55
2018-03-04T23:07:17.893Z,41.10
2018-03-04T23:09:46.133Z,40.38
2018-03-04T23:12:15.025Z,37.80
2018-03-04T23:14:43.920Z,39.95
2018-03-04T23:17:12.132Z,40.15
2018-03-04T23:19:40.181Z,39.80
2018-03-04T23:22:08.309Z,37.60
2018-03-04T23:24:36.429Z,40.03
2018-03-04T23:27:04.572Z,37.05
2018-03-04T23:29:33.489Z,42.65
2018-03-04T23:32:01.724Z,38.58
2018-03-04T23:34:30.615Z,36.38
2018-03-04T23:36:59.541Z,39.17
2018-03-04T23:39:27.661Z,42.75
2018-03-04T23:41:56.000Z,35.90
2018-03-04T23:44:24.111Z,38.10
2018-03-04T23:46:52.264Z,41.15
2018-03-04T23:49:20.384Z,36.88
2018-03-04T23:51:48.645Z,39.20
2018-03-04T23:54:17.549Z,39.85
2018-03-04T23:56:46.452Z,38.50
2018-03-04T23:59:14.581Z,46.33
